Bernard P — WDF2713 — position and weather

sailwx.info

Track history (hours):
 
Tides and Currents Weather Stations Pressure Air Temp Water Temp Dewpoint Dewpoint Depression Visibility Wind Speed Wind Dir Waves Ship Positions

Bernard P

Owner: Marquette Transportation Company Offshore LLC, Jefferson, LA. More information available from US FCC via Universal Licensing System and Coast Guard Vessel Documentation Center.

Last reported at 2018-Apr-14 04:59 UTC. Time now 2018-Apr-24 02:40 UTC.
Position N 29°36' W 090°58'.
Warning: this ship's position is 9 days out of date.

Length 17 m.

Type: Other ship. MMSI: 367431060.

Date/timePositionNaut miles runAvg speedWind from/ knotsBaromVisibWave heightAir tempDewpointWater temp
2018-Apr-14 04:59N 29°36' W 090°58'3 6.8
2018-Apr-14 04:30N 29°34' W 090°55'4 7.0
2018-Apr-14 04:00N 29°32' W 090°52'4 7.1
2018-Apr-14 03:30N 29°32' W 090°47'3 6.1
2018-Apr-14 03:00N 29°34' W 090°45'2 3.3
2018-Apr-14 02:30N 29°35' W 090°43'2 4.2
2018-Apr-14 02:00N 29°37' W 090°42'1 1.7
2018-Apr-14 01:30N 29°37' W 090°41'3 7.0
2018-Apr-14 01:00N 29°35' W 090°38'4 6.9
2018-Apr-14 00:28N 29°34' W 090°34'4 0.1
2018-Apr-12 20:18N 29°34' W 090°29'2 5.9
2018-Apr-12 20:00N 29°34' W 090°31'3 5.7
2018-Apr-12 19:29N 29°34' W 090°35'1 3.0
2018-Apr-12 19:00N 29°35' W 090°36'4 7.2
2018-Apr-12 18:30N 29°36' W 090°40'2 4.9
2018-Apr-12 18:00N 29°35' W 090°43'2 4.6
2018-Apr-12 17:30N 29°33' W 090°42'4 6.9
2018-Apr-12 17:00N 29°29' W 090°43'6 4.0
2018-Apr-12 15:23N 29°23' W 090°44'3 7.5
2018-Apr-12 15:00N 29°26' W 090°43'4 7.7
2018-Apr-12 14:30N 29°30' W 090°43'4 7.5
2018-Apr-12 14:00N 29°33' W 090°43'2 3.3
2018-Apr-12 13:30N 29°35' W 090°43'2 4.2
2018-Apr-12 13:00N 29°37' W 090°42'2 4.7
2018-Apr-12 12:30N 29°36' W 090°39'3 5.6
2018-Apr-12 12:00N 29°35' W 090°36'0 0.7
2018-Apr-12 11:30N 29°35' W 090°36'1 2.5
2018-Apr-12 11:00N 29°35' W 090°37'2 3.2
2018-Apr-12 10:30N 29°36' W 090°39'2 4.5
2018-Apr-12 10:00N 29°36' W 090°41'2 3.1
2018-Apr-12 09:30N 29°36' W 090°43'2 4.0
2018-Apr-12 09:00N 29°34' W 090°44'3 5.3
2018-Apr-12 08:30N 29°32' W 090°46'3 6.2
2018-Apr-12 08:00N 29°32' W 090°50'  
2018-Apr-10 02:22N 29°56' W 093°10'1 3.9
2018-Apr-10 02:00N 29°57' W 093°11'2 4.5
2018-Apr-10 01:30N 29°59' W 093°12'2 4.1
2018-Apr-10 01:00N 30°01' W 093°14'2 4.3
2018-Apr-10 00:30N 30°02' W 093°15'2 4.4
2018-Apr-10 00:00N 30°04' W 093°16'2 3.3
2018-Apr-09 23:30N 30°05' W 093°18'1 1.5
2018-Apr-09 23:00N 30°06' W 093°18'1 1.2
2018-Apr-09 22:30N 30°06' W 093°19'2 4.4
2018-Apr-09 22:00N 30°04' W 093°21'2 3.8
2018-Apr-09 21:30N 30°04' W 093°22'3 5.2
2018-Apr-09 21:00N 30°04' W 093°26'3 5.6
2018-Apr-09 20:30N 30°04' W 093°29'3 5.8
2018-Apr-09 20:00N 30°04' W 093°32'3 5.9
2018-Apr-09 19:30N 30°04' W 093°36'3 5.8
2018-Apr-09 18:59N 30°04' W 093°39'3 5.6
2018-Apr-09 18:30N 30°03' W 093°42'2 3.1
2018-Apr-09 18:00N 30°03' W 093°44'1 2.6
2018-Apr-09 17:30N 30°02' W 093°44'2 3.6
2018-Apr-09 17:00N 30°00' W 093°46'2 3.2
2018-Apr-09 16:30N 29°59' W 093°47'2 3.3
2018-Apr-09 16:00N 29°59' W 093°49'2 4.5
2018-Apr-09 15:30N 29°58' W 093°51'2 4.7
2018-Apr-09 15:00N 29°56' W 093°53'2 4.5
2018-Apr-09 14:30N 29°54' W 093°54'2 4.5
2018-Apr-09 14:00N 29°52' W 093°56'2 4.2
2018-Apr-09 13:30N 29°50' W 093°57'2 3.3
2018-Apr-09 13:00N 29°49' W 093°59'2 3.4
2018-Apr-09 12:30N 29°48' W 094°00'2 4.5
2018-Apr-09 12:00N 29°47' W 094°02'2 4.6
2018-Apr-09 11:30N 29°45' W 094°04'2 4.6
2018-Apr-09 11:00N 29°44' W 094°06'2 4.5
2018-Apr-09 10:30N 29°42' W 094°08'2 4.3
2018-Apr-09 10:00N 29°41' W 094°10'2 3.9
2018-Apr-09 09:30N 29°41' W 094°13'12 2.2
2018-Apr-09 04:00N 29°35' W 094°25'  
Track history (hours):
 
Tides and Currents Weather Stations Pressure Air Temp Water Temp Dewpoint Dewpoint Depression Visibility Wind Speed Wind Dir Waves Ship Positions

Bernard P

Owner: Marquette Transportation Company Offshore LLC, Jefferson, LA. More information available from US FCC via Universal Licensing System and Coast Guard Vessel Documentation Center.

Last reported at 2018-Apr-14 04:59 UTC. Time now 2018-Apr-24 02:40 UTC.
Position N 29°36' W 090°58'.
Warning: this ship's position is 9 days out of date.

Length 17 m.

Type: Other ship. MMSI: 367431060.

Date/timePositionNaut miles runAvg speedWind from/ knotsBaromVisibWave heightAir tempDewpointWater temp
2018-Apr-14 04:59N 29°36' W 090°58'3 6.8
2018-Apr-14 04:30N 29°34' W 090°55'4 7.0
2018-Apr-14 04:00N 29°32' W 090°52'4 7.1
2018-Apr-14 03:30N 29°32' W 090°47'3 6.1
2018-Apr-14 03:00N 29°34' W 090°45'2 3.3
2018-Apr-14 02:30N 29°35' W 090°43'2 4.2
2018-Apr-14 02:00N 29°37' W 090°42'1 1.7
2018-Apr-14 01:30N 29°37' W 090°41'3 7.0
2018-Apr-14 01:00N 29°35' W 090°38'4 6.9
2018-Apr-14 00:28N 29°34' W 090°34'4 0.1
2018-Apr-12 20:18N 29°34' W 090°29'2 5.9
2018-Apr-12 20:00N 29°34' W 090°31'3 5.7
2018-Apr-12 19:29N 29°34' W 090°35'1 3.0
2018-Apr-12 19:00N 29°35' W 090°36'4 7.2
2018-Apr-12 18:30N 29°36' W 090°40'2 4.9
2018-Apr-12 18:00N 29°35' W 090°43'2 4.6
2018-Apr-12 17:30N 29°33' W 090°42'4 6.9
2018-Apr-12 17:00N 29°29' W 090°43'6 4.0
2018-Apr-12 15:23N 29°23' W 090°44'3 7.5
2018-Apr-12 15:00N 29°26' W 090°43'4 7.7
2018-Apr-12 14:30N 29°30' W 090°43'4 7.5
2018-Apr-12 14:00N 29°33' W 090°43'2 3.3
2018-Apr-12 13:30N 29°35' W 090°43'2 4.2
2018-Apr-12 13:00N 29°37' W 090°42'2 4.7
2018-Apr-12 12:30N 29°36' W 090°39'3 5.6
2018-Apr-12 12:00N 29°35' W 090°36'0 0.7
2018-Apr-12 11:30N 29°35' W 090°36'1 2.5
2018-Apr-12 11:00N 29°35' W 090°37'2 3.2
2018-Apr-12 10:30N 29°36' W 090°39'2 4.5
2018-Apr-12 10:00N 29°36' W 090°41'2 3.1
2018-Apr-12 09:30N 29°36' W 090°43'2 4.0
2018-Apr-12 09:00N 29°34' W 090°44'3 5.3
2018-Apr-12 08:30N 29°32' W 090°46'3 6.2
2018-Apr-12 08:00N 29°32' W 090°50'  
2018-Apr-10 02:22N 29°56' W 093°10'1 3.9
2018-Apr-10 02:00N 29°57' W 093°11'2 4.5
2018-Apr-10 01:30N 29°59' W 093°12'2 4.1
2018-Apr-10 01:00N 30°01' W 093°14'2 4.3
2018-Apr-10 00:30N 30°02' W 093°15'2 4.4
2018-Apr-10 00:00N 30°04' W 093°16'2 3.3
2018-Apr-09 23:30N 30°05' W 093°18'1 1.5
2018-Apr-09 23:00N 30°06' W 093°18'1 1.2
2018-Apr-09 22:30N 30°06' W 093°19'2 4.4
2018-Apr-09 22:00N 30°04' W 093°21'2 3.8
2018-Apr-09 21:30N 30°04' W 093°22'3 5.2
2018-Apr-09 21:00N 30°04' W 093°26'3 5.6
2018-Apr-09 20:30N 30°04' W 093°29'3 5.8
2018-Apr-09 20:00N 30°04' W 093°32'3 5.9
2018-Apr-09 19:30N 30°04' W 093°36'3 5.8
2018-Apr-09 18:59N 30°04' W 093°39'3 5.6
2018-Apr-09 18:30N 30°03' W 093°42'2 3.1
2018-Apr-09 18:00N 30°03' W 093°44'1 2.6
2018-Apr-09 17:30N 30°02' W 093°44'2 3.6
2018-Apr-09 17:00N 30°00' W 093°46'2 3.2
2018-Apr-09 16:30N 29°59' W 093°47'2 3.3
2018-Apr-09 16:00N 29°59' W 093°49'2 4.5
2018-Apr-09 15:30N 29°58' W 093°51'2 4.7
2018-Apr-09 15:00N 29°56' W 093°53'2 4.5
2018-Apr-09 14:30N 29°54' W 093°54'2 4.5
2018-Apr-09 14:00N 29°52' W 093°56'2 4.2
2018-Apr-09 13:30N 29°50' W 093°57'2 3.3
2018-Apr-09 13:00N 29°49' W 093°59'2 3.4
2018-Apr-09 12:30N 29°48' W 094°00'2 4.5
2018-Apr-09 12:00N 29°47' W 094°02'2 4.6
2018-Apr-09 11:30N 29°45' W 094°04'2 4.6
2018-Apr-09 11:00N 29°44' W 094°06'2 4.5
2018-Apr-09 10:30N 29°42' W 094°08'2 4.3
2018-Apr-09 10:00N 29°41' W 094°10'2 3.9
2018-Apr-09 09:30N 29°41' W 094°13'12 2.2
2018-Apr-09 04:00N 29°35' W 094°25'  

Dump ship's entire track history